Malden, Washington
Current Conditions -  °F | °C
As of 3:06 PM on Tuesday 27 Jan 2015 (Local Time) from KSKA Reporting Station
Haze Haze  
Wind Chill: 37°   Ceiling: Unl
Heat Index: 37°   Visibility: 5mi
Dew Point: 37°   Wind: 3mph
Humidity: 100%   Direction: 90°E
Pressure: 29.97"   Gusts: NA
Location:  47.23°N, 117.47°W
Report Text: KSKA 272306Z AUTO 09003KT 5SM BR FEW001 03/03 A2997 RMK AO2
Loading
Personal Weather Stations






























Interactive Weather Map New forecast layout! Learn more

10-Day Weather Forecast

Advertisements
Track Severe Weather on mobile